sensor_id;sensor_type;location;lat;lon;timestamp;pressure;altitude;pressure_sealevel;temperature
76895;BMP280;65855;42.030;13.078;2023-04-08T00:01:29;93603.38;;;4.44
76895;BMP280;65855;42.030;13.078;2023-04-08T00:03:54;93599.75;;;4.26
76895;BMP280;65855;42.030;13.078;2023-04-08T00:06:19;93609.53;;;4.32
76895;BMP280;65855;42.030;13.078;2023-04-08T00:08:45;93609.19;;;4.24
76895;BMP280;65855;42.030;13.078;2023-04-08T00:11:10;93612.72;;;3.97
76895;BMP280;65855;42.030;13.078;2023-04-08T00:13:36;93614.50;;;4.01
76895;BMP280;65855;42.030;13.078;2023-04-08T00:16:01;93611.06;;;4.07
76895;BMP280;65855;42.030;13.078;2023-04-08T00:18:27;93611.13;;;4.17
76895;BMP280;65855;42.030;13.078;2023-04-08T00:20:53;93610.75;;;4.30
76895;BMP280;65855;42.030;13.078;2023-04-08T00:23:18;93608.84;;;4.41
76895;BMP280;65855;42.030;13.078;2023-04-08T00:25:45;93605.88;;;4.44
76895;BMP280;65855;42.030;13.078;2023-04-08T00:28:11;93590.91;;;4.49
76895;BMP280;65855;42.030;13.078;2023-04-08T00:30:36;93601.91;;;4.48
76895;BMP280;65855;42.030;13.078;2023-04-08T00:33:02;93598.72;;;4.22
76895;BMP280;65855;42.030;13.078;2023-04-08T00:35:28;93595.50;;;3.95
76895;BMP280;65855;42.030;13.078;2023-04-08T00:37:54;93593.00;;;3.95
76895;BMP280;65855;42.030;13.078;2023-04-08T00:40:19;93582.38;;;3.79
76895;BMP280;65855;42.030;13.078;2023-04-08T00:42:45;93574.56;;;3.96
76895;BMP280;65855;42.030;13.078;2023-04-08T00:45:12;93575.16;;;4.08
76895;BMP280;65855;42.030;13.078;2023-04-08T00:47:38;93581.66;;;4.09
76895;BMP280;65855;42.030;13.078;2023-04-08T00:50:07;93581.16;;;4.07
76895;BMP280;65855;42.030;13.078;2023-04-08T00:52:32;93575.00;;;4.19
76895;BMP280;65855;42.030;13.078;2023-04-08T00:54:58;93572.53;;;4.24
76895;BMP280;65855;42.030;13.078;2023-04-08T00:57:23;93574.06;;;4.30
76895;BMP280;65855;42.030;13.078;2023-04-08T00:59:49;93576.09;;;4.02
76895;BMP280;65855;42.030;13.078;2023-04-08T01:02:24;93569.81;;;4.26
76895;BMP280;65855;42.030;13.078;2023-04-08T01:05:11;93566.31;;;4.27
76895;BMP280;65855;42.030;13.078;2023-04-08T01:07:40;93564.69;;;4.11
76895;BMP280;65855;42.030;13.078;2023-04-08T01:10:12;93561.25;;;4.17
76895;BMP280;65855;42.030;13.078;2023-04-08T01:12:42;93563.00;;;3.85
76895;BMP280;65855;42.030;13.078;2023-04-08T01:15:10;93554.16;;;3.99
76895;BMP280;65855;42.030;13.078;2023-04-08T01:17:36;93563.16;;;4.05
76895;BMP280;65855;42.030;13.078;2023-04-08T01:20:03;93557.22;;;4.11
76895;BMP280;65855;42.030;13.078;2023-04-08T01:25:35;93547.25;;;4.11
76895;BMP280;65855;42.030;13.078;2023-04-08T01:28:07;93556.59;;;4.30
76895;BMP280;65855;42.030;13.078;2023-04-08T01:30:36;93554.97;;;4.45
76895;BMP280;65855;42.030;13.078;2023-04-08T01:33:02;93550.03;;;4.50
76895;BMP280;65855;42.030;13.078;2023-04-08T01:35:30;93557.47;;;4.45
76895;BMP280;65855;42.030;13.078;2023-04-08T01:37:56;93551.09;;;4.64
76895;BMP280;65855;42.030;13.078;2023-04-08T01:40:22;93544.06;;;4.61
76895;BMP280;65855;42.030;13.078;2023-04-08T01:42:49;93544.81;;;4.61
76895;BMP280;65855;42.030;13.078;2023-04-08T01:45:16;93538.41;;;4.70
76895;BMP280;65855;42.030;13.078;2023-04-08T01:47:43;93555.63;;;4.72
76895;BMP280;65855;42.030;13.078;2023-04-08T01:50:11;93549.56;;;4.58
76895;BMP280;65855;42.030;13.078;2023-04-08T01:52:38;93543.38;;;4.70
76895;BMP280;65855;42.030;13.078;2023-04-08T01:55:04;93539.91;;;4.76
76895;BMP280;65855;42.030;13.078;2023-04-08T01:57:31;93532.09;;;4.58
76895;BMP280;65855;42.030;13.078;2023-04-08T02:00:04;93534.06;;;4.51
76895;BMP280;65855;42.030;13.078;2023-04-08T02:02:31;93533.63;;;4.64
76895;BMP280;65855;42.030;13.078;2023-04-08T02:04:57;93530.91;;;4.70
76895;BMP280;65855;42.030;13.078;2023-04-08T02:07:23;93534.09;;;4.61
76895;BMP280;65855;42.030;13.078;2023-04-08T02:09:49;93542.81;;;4.58
76895;BMP280;65855;42.030;13.078;2023-04-08T02:12:15;93532.38;;;4.66
76895;BMP280;65855;42.030;13.078;2023-04-08T02:14:40;93525.75;;;4.91
76895;BMP280;65855;42.030;13.078;2023-04-08T02:19:40;93521.72;;;4.85
76895;BMP280;65855;42.030;13.078;2023-04-08T02:22:13;93510.72;;;4.81
76895;BMP280;65855;42.030;13.078;2023-04-08T02:24:42;93510.09;;;4.50
76895;BMP280;65855;42.030;13.078;2023-04-08T02:27:09;93502.34;;;4.56
76895;BMP280;65855;42.030;13.078;2023-04-08T02:29:35;93492.94;;;4.63
76895;BMP280;65855;42.030;13.078;2023-04-08T02:32:03;93486.19;;;4.69
76895;BMP280;65855;42.030;13.078;2023-04-08T02:34:29;93477.66;;;4.60
76895;BMP280;65855;42.030;13.078;2023-04-08T02:36:55;93477.84;;;4.44
76895;BMP280;65855;42.030;13.078;2023-04-08T02:39:29;93476.19;;;4.64
76895;BMP280;65855;42.030;13.078;2023-04-08T02:41:55;93479.38;;;4.54
76895;BMP280;65855;42.030;13.078;2023-04-08T02:44:20;93475.13;;;4.45
76895;BMP280;65855;42.030;13.078;2023-04-08T02:46:46;93470.88;;;4.46
76895;BMP280;65855;42.030;13.078;2023-04-08T02:49:11;93462.09;;;4.38
76895;BMP280;65855;42.030;13.078;2023-04-08T02:51:36;93461.03;;;4.25
76895;BMP280;65855;42.030;13.078;2023-04-08T02:54:02;93461.25;;;4.23
76895;BMP280;65855;42.030;13.078;2023-04-08T02:56:27;93455.47;;;4.13
76895;BMP280;65855;42.030;13.078;2023-04-08T02:58:53;93448.66;;;3.99
76895;BMP280;65855;42.030;13.078;2023-04-08T03:01:19;93442.91;;;3.98
76895;BMP280;65855;42.030;13.078;2023-04-08T03:03:45;93441.38;;;3.87
76895;BMP280;65855;42.030;13.078;2023-04-08T03:06:10;93432.44;;;3.96
76895;BMP280;65855;42.030;13.078;2023-04-08T03:08:35;93429.47;;;3.99
76895;BMP280;65855;42.030;13.078;2023-04-08T03:11:01;93429.94;;;3.96
76895;BMP280;65855;42.030;13.078;2023-04-08T03:13:26;93419.00;;;4.02
76895;BMP280;65855;42.030;13.078;2023-04-08T03:15:53;93411.63;;;4.22
76895;BMP280;65855;42.030;13.078;2023-04-08T03:18:19;93411.16;;;4.30
76895;BMP280;65855;42.030;13.078;2023-04-08T03:20:45;93411.16;;;4.30
76895;BMP280;65855;42.030;13.078;2023-04-08T03:23:11;93414.16;;;4.31
76895;BMP280;65855;42.030;13.078;2023-04-08T03:25:36;93419.63;;;4.29
76895;BMP280;65855;42.030;13.078;2023-04-08T03:28:02;93421.34;;;4.23
76895;BMP280;65855;42.030;13.078;2023-04-08T03:30:27;93411.16;;;4.30
76895;BMP280;65855;42.030;13.078;2023-04-08T03:32:52;93416.13;;;4.25
76895;BMP280;65855;42.030;13.078;2023-04-08T03:35:18;93419.00;;;4.02
76895;BMP280;65855;42.030;13.078;2023-04-08T03:37:43;93428.19;;;3.97
76895;BMP280;65855;42.030;13.078;2023-04-08T03:40:09;93428.56;;;4.15
76895;BMP280;65855;42.030;13.078;2023-04-08T03:42:35;93432.03;;;4.14
76895;BMP280;65855;42.030;13.078;2023-04-08T03:45:00;93428.63;;;4.30
76895;BMP280;65855;42.030;13.078;2023-04-08T03:47:26;93422.72;;;4.45
76895;BMP280;65855;42.030;13.078;2023-04-08T03:49:52;93427.19;;;4.43
76895;BMP280;65855;42.030;13.078;2023-04-08T03:52:19;93433.69;;;4.44
76895;BMP280;65855;42.030;13.078;2023-04-08T03:54:44;93433.69;;;4.44
76895;BMP280;65855;42.030;13.078;2023-04-08T03:57:10;93432.94;;;4.44
76895;BMP280;65855;42.030;13.078;2023-04-08T03:59:36;93425.22;;;4.50
76895;BMP280;65855;42.030;13.078;2023-04-08T04:02:03;93425.22;;;4.55
76895;BMP280;65855;42.030;13.078;2023-04-08T04:04:29;93431.63;;;4.36
76895;BMP280;65855;42.030;13.078;2023-04-08T04:06:55;93425.28;;;4.09
76895;BMP280;65855;42.030;13.078;2023-04-08T04:09:20;93415.63;;;4.23
76895;BMP280;65855;42.030;13.078;2023-04-08T04:11:46;93419.69;;;4.43
76895;BMP280;65855;42.030;13.078;2023-04-08T04:14:11;93426.72;;;4.56
76895;BMP280;65855;42.030;13.078;2023-04-08T04:16:37;93431.00;;;4.65
76895;BMP280;65855;42.030;13.078;2023-04-08T04:19:02;93434.06;;;4.77
76895;BMP280;65855;42.030;13.078;2023-04-08T04:21:28;93436.78;;;4.76
76895;BMP280;65855;42.030;13.078;2023-04-08T04:23:53;93434.31;;;4.85
76895;BMP280;65855;42.030;13.078;2023-04-08T04:26:19;93437.09;;;4.94
76895;BMP280;65855;42.030;13.078;2023-04-08T04:28:45;93435.84;;;5.01
76895;BMP280;65855;42.030;13.078;2023-04-08T04:31:21;93437.84;;;4.89
76895;BMP280;65855;42.030;13.078;2023-04-08T04:33:47;93450.03;;;4.81
76895;BMP280;65855;42.030;13.078;2023-04-08T04:36:13;93456.72;;;4.66
76895;BMP280;65855;42.030;13.078;2023-04-08T04:38:39;93451.59;;;4.36
76895;BMP280;65855;42.030;13.078;2023-04-08T04:41:04;93463.72;;;4.64
76895;BMP280;65855;42.030;13.078;2023-04-08T04:43:30;93469.19;;;4.61
76895;BMP280;65855;42.030;13.078;2023-04-08T04:45:55;93469.59;;;4.43
76895;BMP280;65855;42.030;13.078;2023-04-08T04:48:23;93474.25;;;4.25
76895;BMP280;65855;42.030;13.078;2023-04-08T04:50:56;93476.91;;;4.09
76895;BMP280;65855;42.030;13.078;2023-04-08T04:53:22;93476.84;;;4.04
76895;BMP280;65855;42.030;13.078;2023-04-08T04:55:47;93483.84;;;4.02
76895;BMP280;65855;42.030;13.078;2023-04-08T04:58:12;93503.16;;;3.85
76895;BMP280;65855;42.030;13.078;2023-04-08T05:00:38;93504.72;;;3.60
76895;BMP280;65855;42.030;13.078;2023-04-08T05:03:03;93514.34;;;3.47
76895;BMP280;65855;42.030;13.078;2023-04-08T05:05:29;93498.72;;;3.31
76895;BMP280;65855;42.030;13.078;2023-04-08T05:07:54;93493.59;;;3.42
76895;BMP280;65855;42.030;13.078;2023-04-08T05:10:20;93485.38;;;3.41
76895;BMP280;65855;42.030;13.078;2023-04-08T05:12:45;93464.41;;;3.37
76895;BMP280;65855;42.030;13.078;2023-04-08T05:15:11;93478.22;;;3.24
76895;BMP280;65855;42.030;13.078;2023-04-08T05:17:36;93472.13;;;3.10
76895;BMP280;65855;42.030;13.078;2023-04-08T05:20:02;93465.91;;;3.12
76895;BMP280;65855;42.030;13.078;2023-04-08T05:22:27;93465.53;;;2.99
76895;BMP280;65855;42.030;13.078;2023-04-08T05:24:53;93468.66;;;3.11
76895;BMP280;65855;42.030;13.078;2023-04-08T05:27:18;93456.19;;;3.11
76895;BMP280;65855;42.030;13.078;2023-04-08T05:29:45;93450.22;;;3.12
76895;BMP280;65855;42.030;13.078;2023-04-08T05:32:11;93449.16;;;3.29
76895;BMP280;65855;42.030;13.078;2023-04-08T05:34:36;93442.03;;;3.42
76895;BMP280;65855;42.030;13.078;2023-04-08T05:37:02;93441.50;;;3.40
76895;BMP280;65855;42.030;13.078;2023-04-08T05:39:27;93446.06;;;3.48
76895;BMP280;65855;42.030;13.078;2023-04-08T05:41:53;93449.06;;;3.50
76895;BMP280;65855;42.030;13.078;2023-04-08T05:44:18;93448.16;;;3.61
76895;BMP280;65855;42.030;13.078;2023-04-08T05:46:44;93454.69;;;3.72
76895;BMP280;65855;42.030;13.078;2023-04-08T05:49:10;93464.16;;;3.70
76895;BMP280;65855;42.030;13.078;2023-04-08T05:51:36;93455.75;;;3.76
76895;BMP280;65855;42.030;13.078;2023-04-08T05:54:01;93448.50;;;3.79
76895;BMP280;65855;42.030;13.078;2023-04-08T05:56:27;93444.53;;;3.78
76895;BMP280;65855;42.030;13.078;2023-04-08T05:58:53;93448.81;;;3.83
76895;BMP280;65855;42.030;13.078;2023-04-08T06:01:18;93449.00;;;3.76
76895;BMP280;65855;42.030;13.078;2023-04-08T06:03:43;93449.78;;;3.82
76895;BMP280;65855;42.030;13.078;2023-04-08T06:06:10;93458.09;;;3.56
76895;BMP280;65855;42.030;13.078;2023-04-08T06:08:38;93452.44;;;3.70
76895;BMP280;65855;42.030;13.078;2023-04-08T06:11:04;93444.59;;;3.88
76895;BMP280;65855;42.030;13.078;2023-04-08T06:13:30;93449.84;;;3.91
76895;BMP280;65855;42.030;13.078;2023-04-08T06:15:56;93444.16;;;3.96
76895;BMP280;65855;42.030;13.078;2023-04-08T06:18:22;93444.00;;;4.12
76895;BMP280;65855;42.030;13.078;2023-04-08T06:20:47;93448.50;;;4.15
76895;BMP280;65855;42.030;13.078;2023-04-08T06:23:13;93436.81;;;4.20
76895;BMP280;65855;42.030;13.078;2023-04-08T06:25:39;93447.53;;;4.21
76895;BMP280;65855;42.030;13.078;2023-04-08T06:28:04;93448.06;;;4.28
76895;BMP280;65855;42.030;13.078;2023-04-08T06:30:30;93443.66;;;4.44
76895;BMP280;65855;42.030;13.078;2023-04-08T06:32:55;93455.19;;;4.55
76895;BMP280;65855;42.030;13.078;2023-04-08T06:35:20;93451.22;;;4.59
76895;BMP280;65855;42.030;13.078;2023-04-08T06:37:46;93451.22;;;4.69
76895;BMP280;65855;42.030;13.078;2023-04-08T06:40:11;93456.22;;;4.69
76895;BMP280;65855;42.030;13.078;2023-04-08T06:42:37;93465.00;;;4.71
76895;BMP280;65855;42.030;13.078;2023-04-08T06:45:03;93464.72;;;4.68
76895;BMP280;65855;42.030;13.078;2023-04-08T06:47:29;93468.19;;;4.57
76895;BMP280;65855;42.030;13.078;2023-04-08T06:49:55;93459.78;;;4.27
76895;BMP280;65855;42.030;13.078;2023-04-08T06:52:20;93465.50;;;4.23
76895;BMP280;65855;42.030;13.078;2023-04-08T06:54:45;93460.47;;;4.13
76895;BMP280;65855;42.030;13.078;2023-04-08T06:57:11;93464.38;;;4.04
76895;BMP280;65855;42.030;13.078;2023-04-08T06:59:36;93469.88;;;4.01
76895;BMP280;65855;42.030;13.078;2023-04-08T07:02:02;93462.91;;;4.03
76895;BMP280;65855;42.030;13.078;2023-04-08T07:04:27;93463.69;;;4.08
76895;BMP280;65855;42.030;13.078;2023-04-08T07:06:53;93466.69;;;4.10
76895;BMP280;65855;42.030;13.078;2023-04-08T07:09:18;93471.53;;;4.27
76895;BMP280;65855;42.030;13.078;2023-04-08T07:11:43;93468.28;;;4.26
76895;BMP280;65855;42.030;13.078;2023-04-08T07:14:10;93469.56;;;4.33
76895;BMP280;65855;42.030;13.078;2023-04-08T07:16:36;93471.91;;;4.09
76895;BMP280;65855;42.030;13.078;2023-04-08T07:19:01;93469.94;;;3.75
76895;BMP280;65855;42.030;13.078;2023-04-08T07:21:27;93479.00;;;3.91
76895;BMP280;65855;42.030;13.078;2023-04-08T07:23:52;93482.56;;;3.64
76895;BMP280;65855;42.030;13.078;2023-04-08T07:26:17;93496.16;;;3.52
76895;BMP280;65855;42.030;13.078;2023-04-08T07:28:43;93504.94;;;3.59
76895;BMP280;65855;42.030;13.078;2023-04-08T07:31:16;93503.66;;;3.83
76895;BMP280;65855;42.030;13.078;2023-04-08T07:33:42;93498.50;;;3.94
76895;BMP280;65855;42.030;13.078;2023-04-08T07:36:08;93502.16;;;3.82
76895;BMP280;65855;42.030;13.078;2023-04-08T07:38:34;93505.53;;;3.71
76895;BMP280;65855;42.030;13.078;2023-04-08T07:40:59;93504.00;;;3.65
76895;BMP280;65855;42.030;13.078;2023-04-08T07:43:25;93503.94;;;3.55
76895;BMP280;65855;42.030;13.078;2023-04-08T07:45:50;93514.22;;;3.37
76895;BMP280;65855;42.030;13.078;2023-04-08T07:48:16;93516.00;;;3.16
76895;BMP280;65855;42.030;13.078;2023-04-08T07:50:42;93518.06;;;2.98
76895;BMP280;65855;42.030;13.078;2023-04-08T07:53:08;93518.50;;;2.74
76895;BMP280;65855;42.030;13.078;2023-04-08T07:55:34;93517.25;;;2.71
76895;BMP280;65855;42.030;13.078;2023-04-08T07:57:59;93522.00;;;2.52
76895;BMP280;65855;42.030;13.078;2023-04-08T08:00:26;93517.53;;;2.16
76895;BMP280;65855;42.030;13.078;2023-04-08T08:02:51;93523.56;;;2.20
76895;BMP280;65855;42.030;13.078;2023-04-08T08:05:17;93526.28;;;2.19
76895;BMP280;65855;42.030;13.078;2023-04-08T08:07:42;93538.94;;;1.69
76895;BMP280;65855;42.030;13.078;2023-04-08T08:10:08;93552.06;;;1.37
76895;BMP280;65855;42.030;13.078;2023-04-08T08:12:35;93546.84;;;1.22
76895;BMP280;65855;42.030;13.078;2023-04-08T08:15:00;93553.16;;;1.30
76895;BMP280;65855;42.030;13.078;2023-04-08T08:17:26;93548.97;;;1.46
76895;BMP280;65855;42.030;13.078;2023-04-08T08:19:54;93549.00;;;1.79
76895;BMP280;65855;42.030;13.078;2023-04-08T08:22:19;93560.69;;;1.62
76895;BMP280;65855;42.030;13.078;2023-04-08T08:24:45;93564.91;;;1.34
76895;BMP280;65855;42.030;13.078;2023-04-08T08:27:11;93567.38;;;1.07
76895;BMP280;65855;42.030;13.078;2023-04-08T08:29:37;93564.53;;;1.15
76895;BMP280;65855;42.030;13.078;2023-04-08T08:32:03;93573.41;;;1.11
76895;BMP280;65855;42.030;13.078;2023-04-08T08:34:28;93566.03;;;1.16
76895;BMP280;65855;42.030;13.078;2023-04-08T08:36:54;93564.25;;;1.11
76895;BMP280;65855;42.030;13.078;2023-04-08T08:39:20;93554.03;;;0.96
76895;BMP280;65855;42.030;13.078;2023-04-08T08:41:45;93538.38;;;0.96
76895;BMP280;65855;42.030;13.078;2023-04-08T08:44:11;93534.09;;;1.19
76895;BMP280;65855;42.030;13.078;2023-04-08T08:46:43;93521.06;;;1.12
76895;BMP280;65855;42.030;13.078;2023-04-08T08:49:08;93517.28;;;1.53
76895;BMP280;65855;42.030;13.078;2023-04-08T08:51:34;93496.75;;;2.06
76895;BMP280;65855;42.030;13.078;2023-04-08T08:54:03;93515.94;;;2.48
76895;BMP280;65855;42.030;13.078;2023-04-08T08:56:28;93513.94;;;2.66
76895;BMP280;65855;42.030;13.078;2023-04-08T08:58:54;93508.19;;;3.08
76895;BMP280;65855;42.030;13.078;2023-04-08T09:01:32;93497.09;;;3.46
76895;BMP280;65855;42.030;13.078;2023-04-08T09:04:14;93505.63;;;3.81
76895;BMP280;65855;42.030;13.078;2023-04-08T09:06:48;93505.75;;;3.95
76895;BMP280;65855;42.030;13.078;2023-04-08T09:09:18;93511.28;;;4.02
76895;BMP280;65855;42.030;13.078;2023-04-08T09:11:45;93505.25;;;4.34
76895;BMP280;65855;42.030;13.078;2023-04-08T09:14:18;93504.84;;;4.52
76895;BMP280;65855;42.030;13.078;2023-04-08T09:16:44;93500.91;;;4.65
76895;BMP280;65855;42.030;13.078;2023-04-08T09:19:10;93506.88;;;3.52
76895;BMP280;65855;42.030;13.078;2023-04-08T09:21:36;93511.16;;;3.57
76895;BMP280;65855;42.030;13.078;2023-04-08T09:24:02;93510.16;;;2.63
76895;BMP280;65855;42.030;13.078;2023-04-08T09:26:28;93513.47;;;3.11
76895;BMP280;65855;42.030;13.078;2023-04-08T09:29:01;93510.06;;;4.09
76895;BMP280;65855;42.030;13.078;2023-04-08T09:31:30;93510.91;;;5.35
76895;BMP280;65855;42.030;13.078;2023-04-08T09:33:58;93520.41;;;5.58
76895;BMP280;65855;42.030;13.078;2023-04-08T09:36:25;93521.66;;;6.53
76895;BMP280;65855;42.030;13.078;2023-04-08T09:38:54;93505.13;;;8.33
76895;BMP280;65855;42.030;13.078;2023-04-08T09:41:20;93495.63;;;8.30
76895;BMP280;65855;42.030;13.078;2023-04-08T09:43:49;93496.16;;;6.47
76895;BMP280;65855;42.030;13.078;2023-04-08T09:46:17;93493.03;;;6.79
76895;BMP280;65855;42.030;13.078;2023-04-08T09:48:55;93488.66;;;7.51
76895;BMP280;65855;42.030;13.078;2023-04-08T09:51:22;93493.00;;;7.46
76895;BMP280;65855;42.030;13.078;2023-04-08T09:53:58;93485.47;;;7.46
76895;BMP280;65855;42.030;13.078;2023-04-08T09:56:29;93473.34;;;8.23
76895;BMP280;65855;42.030;13.078;2023-04-08T09:58:59;93475.84;;;9.34
76895;BMP280;65855;42.030;13.078;2023-04-08T10:01:37;93465.28;;;10.75
76895;BMP280;65855;42.030;13.078;2023-04-08T10:04:07;93473.09;;;11.13
76895;BMP280;65855;42.030;13.078;2023-04-08T10:06:34;93460.84;;;13.18
76895;BMP280;65855;42.030;13.078;2023-04-08T10:09:00;93455.41;;;12.48
76895;BMP280;65855;42.030;13.078;2023-04-08T10:11:27;93457.34;;;13.60
76895;BMP280;65855;42.030;13.078;2023-04-08T10:13:53;93451.88;;;14.53
76895;BMP280;65855;42.030;13.078;2023-04-08T10:16:20;93439.81;;;14.42
76895;BMP280;65855;42.030;13.078;2023-04-08T10:18:50;93448.34;;;15.39
76895;BMP280;65855;42.030;13.078;2023-04-08T10:21:41;93442.53;;;15.79
76895;BMP280;65855;42.030;13.078;2023-04-08T10:24:14;93442.16;;;16.53
76895;BMP280;65855;42.030;13.078;2023-04-08T10:26:41;93433.47;;;17.01
76895;BMP280;65855;42.030;13.078;2023-04-08T10:31:52;93425.31;;;16.83
76895;BMP280;65855;42.030;13.078;2023-04-08T10:34:19;93423.81;;;16.94
76895;BMP280;65855;42.030;13.078;2023-04-08T10:36:46;93417.72;;;17.96
76895;BMP280;65855;42.030;13.078;2023-04-08T10:39:13;93419.59;;;16.86
76895;BMP280;65855;42.030;13.078;2023-04-08T10:41:47;93422.59;;;16.33
76895;BMP280;65855;42.030;13.078;2023-04-08T10:44:20;93421.06;;;15.88
76895;BMP280;65855;42.030;13.078;2023-04-08T10:46:49;93415.50;;;15.35
76895;BMP280;65855;42.030;13.078;2023-04-08T10:49:16;93410.25;;;15.11
76895;BMP280;65855;42.030;13.078;2023-04-08T10:51:42;93420.78;;;11.75
76895;BMP280;65855;42.030;13.078;2023-04-08T10:54:15;93414.66;;;12.87
76895;BMP280;65855;42.030;13.078;2023-04-08T10:56:45;93412.63;;;13.22
76895;BMP280;65855;42.030;13.078;2023-04-08T10:59:13;93410.97;;;13.01
76895;BMP280;65855;42.030;13.078;2023-04-08T11:01:41;93408.78;;;11.24
76895;BMP280;65855;42.030;13.078;2023-04-08T11:04:13;93404.25;;;11.91
76895;BMP280;65855;42.030;13.078;2023-04-08T11:06:38;93407.56;;;13.22
76895;BMP280;65855;42.030;13.078;2023-04-08T11:09:04;93390.50;;;14.15
76895;BMP280;65855;42.030;13.078;2023-04-08T11:11:30;93396.22;;;10.98
76895;BMP280;65855;42.030;13.078;2023-04-08T11:13:56;93400.34;;;12.45
76895;BMP280;65855;42.030;13.078;2023-04-08T11:16:21;93390.00;;;13.34
76895;BMP280;65855;42.030;13.078;2023-04-08T11:18:47;93380.75;;;16.66
76895;BMP280;65855;42.030;13.078;2023-04-08T11:21:14;93379.13;;;17.71
76895;BMP280;65855;42.030;13.078;2023-04-08T11:23:41;93376.06;;;16.44
76895;BMP280;65855;42.030;13.078;2023-04-08T11:26:06;93369.28;;;16.72
76895;BMP280;65855;42.030;13.078;2023-04-08T11:28:33;93375.34;;;16.56
76895;BMP280;65855;42.030;13.078;2023-04-08T11:30:59;93370.94;;;16.09
76895;BMP280;65855;42.030;13.078;2023-04-08T11:33:29;93383.66;;;14.89
76895;BMP280;65855;42.030;13.078;2023-04-08T11:35:55;93375.94;;;14.48
76895;BMP280;65855;42.030;13.078;2023-04-08T11:38:22;93371.94;;;13.86
76895;BMP280;65855;42.030;13.078;2023-04-08T11:40:54;93377.94;;;13.23
76895;BMP280;65855;42.030;13.078;2023-04-08T11:43:20;93371.22;;;13.27
76895;BMP280;65855;42.030;13.078;2023-04-08T11:45:46;93374.13;;;12.79
76895;BMP280;65855;42.030;13.078;2023-04-08T11:48:13;93374.16;;;12.41
76895;BMP280;65855;42.030;13.078;2023-04-08T11:50:40;93378.84;;;12.17
76895;BMP280;65855;42.030;13.078;2023-04-08T11:53:19;93374.50;;;11.88
76895;BMP280;65855;42.030;13.078;2023-04-08T11:55:45;93373.34;;;12.24
76895;BMP280;65855;42.030;13.078;2023-04-08T11:58:10;93376.50;;;12.29
76895;BMP280;65855;42.030;13.078;2023-04-08T12:00:36;93371.56;;;12.24
76895;BMP280;65855;42.030;13.078;2023-04-08T12:03:02;93370.94;;;11.89
76895;BMP280;65855;42.030;13.078;2023-04-08T12:05:28;93374.50;;;12.09
76895;BMP280;65855;42.030;13.078;2023-04-08T12:07:53;93372.09;;;12.13
76895;BMP280;65855;42.030;13.078;2023-04-08T12:10:19;93361.84;;;12.09
76895;BMP280;65855;42.030;13.078;2023-04-08T12:12:45;93361.69;;;12.14
76895;BMP280;65855;42.030;13.078;2023-04-08T12:15:10;93360.22;;;12.13
76895;BMP280;65855;42.030;13.078;2023-04-08T12:17:36;93361.03;;;11.92
76895;BMP280;65855;42.030;13.078;2023-04-08T12:20:06;93354.53;;;12.46
76895;BMP280;65855;42.030;13.078;2023-04-08T12:22:32;93345.97;;;12.55
76895;BMP280;65855;42.030;13.078;2023-04-08T12:24:57;93346.56;;;12.69
76895;BMP280;65855;42.030;13.078;2023-04-08T12:27:22;93342.59;;;12.30
76895;BMP280;65855;42.030;13.078;2023-04-08T12:29:48;93341.44;;;11.98
76895;BMP280;65855;42.030;13.078;2023-04-08T12:32:14;93335.31;;;11.90
76895;BMP280;65855;42.030;13.078;2023-04-08T12:34:40;93330.88;;;11.66
76895;BMP280;65855;42.030;13.078;2023-04-08T12:37:05;93338.91;;;11.11
76895;BMP280;65855;42.030;13.078;2023-04-08T12:39:31;93329.78;;;12.18
76895;BMP280;65855;42.030;13.078;2023-04-08T12:41:56;93334.03;;;12.48
76895;BMP280;65855;42.030;13.078;2023-04-08T12:44:21;93331.22;;;12.49
76895;BMP280;65855;42.030;13.078;2023-04-08T12:46:47;93328.47;;;12.29
76895;BMP280;65855;42.030;13.078;2023-04-08T12:49:12;93323.69;;;12.19
76895;BMP280;65855;42.030;13.078;2023-04-08T12:51:37;93323.22;;;11.57
76895;BMP280;65855;42.030;13.078;2023-04-08T12:54:04;93324.97;;;11.49
76895;BMP280;65855;42.030;13.078;2023-04-08T12:56:30;93320.72;;;11.36
76895;BMP280;65855;42.030;13.078;2023-04-08T12:58:57;93323.31;;;11.31
76895;BMP280;65855;42.030;13.078;2023-04-08T13:01:22;93320.88;;;10.83
76895;BMP280;65855;42.030;13.078;2023-04-08T13:03:48;93326.69;;;10.83
76895;BMP280;65855;42.030;13.078;2023-04-08T13:06:14;93320.31;;;10.38
76895;BMP280;65855;42.030;13.078;2023-04-08T13:08:40;93331.59;;;10.27
76895;BMP280;65855;42.030;13.078;2023-04-08T13:11:06;93330.47;;;10.33
76895;BMP280;65855;42.030;13.078;2023-04-08T13:13:32;93332.81;;;10.56
76895;BMP280;65855;42.030;13.078;2023-04-08T13:15:57;93328.22;;;10.58
76895;BMP280;65855;42.030;13.078;2023-04-08T13:18:23;93330.41;;;10.25
76895;BMP280;65855;42.030;13.078;2023-04-08T13:20:48;93336.38;;;10.42
76895;BMP280;65855;42.030;13.078;2023-04-08T13:23:13;93335.88;;;10.40
76895;BMP280;65855;42.030;13.078;2023-04-08T13:25:42;93336.47;;;10.37
76895;BMP280;65855;42.030;13.078;2023-04-08T13:28:07;93349.31;;;10.22
76895;BMP280;65855;42.030;13.078;2023-04-08T13:30:33;93343.19;;;9.70
76895;BMP280;65855;42.030;13.078;2023-04-08T13:32:58;93355.75;;;9.70
76895;BMP280;65855;42.030;13.078;2023-04-08T13:35:24;93363.84;;;7.71
76895;BMP280;65855;42.030;13.078;2023-04-08T13:37:49;93371.44;;;7.34
76895;BMP280;65855;42.030;13.078;2023-04-08T13:40:15;93370.50;;;6.87
76895;BMP280;65855;42.030;13.078;2023-04-08T13:42:40;93369.72;;;6.44
76895;BMP280;65855;42.030;13.078;2023-04-08T13:45:06;93380.31;;;6.22
76895;BMP280;65855;42.030;13.078;2023-04-08T13:47:32;93389.44;;;5.74
76895;BMP280;65855;42.030;13.078;2023-04-08T13:49:57;93384.16;;;5.50
76895;BMP280;65855;42.030;13.078;2023-04-08T13:52:23;93385.66;;;5.32
76895;BMP280;65855;42.030;13.078;2023-04-08T13:54:48;93396.16;;;5.14
76895;BMP280;65855;42.030;13.078;2023-04-08T13:57:13;93409.41;;;5.20
76895;BMP280;65855;42.030;13.078;2023-04-08T13:59:39;93407.69;;;5.54
76895;BMP280;65855;42.030;13.078;2023-04-08T14:02:05;93423.41;;;5.89
76895;BMP280;65855;42.030;13.078;2023-04-08T14:04:30;93418.16;;;5.91
76895;BMP280;65855;42.030;13.078;2023-04-08T14:06:56;93422.19;;;5.67
76895;BMP280;65855;42.030;13.078;2023-04-08T14:09:22;93420.69;;;5.47
76895;BMP280;65855;42.030;13.078;2023-04-08T14:11:48;93417.41;;;5.31